Bookmark and Share
Track history (hours):
 

Mary Bennett

More information available from US FCC via Universal Licensing System and Coast Guard Vessel Documentation Center.

Last reported at 2013-Jan-24 05:37 UTC. Time now 2014-Apr-17 01:05 UTC.
Position N 25°47' W 080°05'.
Warning: this ship's position is years out of date!

Length 21 m; draft 2.6 m.

Type: Tug. MMSI: 367027140.

NotesDate/timePositionNaut miles runAvg speedWind from/ knotsBaromVisibWave heightAir tempDewpointWater temp
2013-Jan-24 05:37N 25°47' W 080°05'3 2.8
2013-Jan-24 04:33N 25°44' W 080°06'  
2013-Jan-17 04:25N 27°58' W 082°50'0 0.0
2013-Jan-16 13:15N 27°58' W 082°50'0 0.0
2013-Jan-16 11:33N 27°58' W 082°50'0 0.0
2013-Jan-16 09:21N 27°58' W 082°50'5 4.2
2013-Jan-16 08:16N 27°54' W 082°52'4 5.9
2013-Jan-16 07:33N 27°50' W 082°51'6 6.2
2013-Jan-16 06:33N 27°44' W 082°48'5 6.1
2013-Jan-16 05:44N 27°39' W 082°46'6 3.7
2013-Jan-16 04:12N 27°37' W 082°41'4 5.4
2013-Jan-16 03:22N 27°40' W 082°37'5 5.7
2013-Jan-16 02:33N 27°45' W 082°37'6 5.4
2013-Jan-16 01:27N 27°50' W 082°34'2 2.2
2013-Jan-16 00:33N 27°52' W 082°33'3 0.9
2013-Jan-15 21:25N 27°49' W 082°34'3 3.4
2013-Jan-15 20:32N 27°46' W 082°35'4 3.7
2013-Jan-15 19:33N 27°43' W 082°37'4 3.7
2013-Jan-15 18:33N 27°39' W 082°37'4 3.7
2013-Jan-15 17:33N 27°37' W 082°41'4 3.6
2013-Jan-15 16:33N 27°36' W 082°45'3 2.9
2013-Jan-15 15:33N 27°37' W 082°48'2 2.1
2013-Jan-15 14:33N 27°37' W 082°50'3 2.5
2013-Jan-15 13:33N 27°40' W 082°51'3 2.7
2013-Jan-15 12:33N 27°42' W 082°51'3 2.9
2013-Jan-15 11:38N 27°45' W 082°52'4 3.2
2013-Jan-15 10:29N 27°49' W 082°52'3 3.3
2013-Jan-15 09:29N 27°52' W 082°52'3 3.4
2013-Jan-15 08:33N 27°55' W 082°52'3 2.5
2013-Jan-15 07:13N 27°58' W 082°51'1 1.3
2013-Jan-15 06:33N 27°58' W 082°50'0 0.0
2013-Jan-15 05:30N 27°58' W 082°50'0 0.0
2013-Jan-15 04:33N 27°58' W 082°50'7 6.4
2013-Jan-15 03:31N 27°53' W 082°54'9 9.8
2013-Jan-15 02:33N 27°44' W 082°51'9 9.3
2013-Jan-15 01:33N 27°35' W 082°48'  

Dump ship's entire track history

sailing weather and tide predictions

Mary Bennett — WDC4592 — position and weather